Terminal Aerodrome Forecast
Issued by NWS Upton, NY

Home | Current Version | Previous Version | Text Only | Print | Product List | Glossary On
Versions: 1 2 3 4 5 6 7 8 9 10 11 12 13 14 15 16 17 18 19 20 21 22 23 24 25 26 27 28 29 30 31 32 33 34 35 36
000
FTUS41 KOKX 280546
TAFEWR
TAF
KEWR 280546Z 2806/2912 25004KT P6SM FEW070
     FM280900 VRB03KT P6SM FEW070
     FM281600 18005KT P6SM FEW070 BKN200
     FM281800 15010KT P6SM SCT070 BKN200
     FM282200 16008KT P6SM FEW070 BKN150
     FM290100 17005KT P6SM VCSH FEW080 BKN150
     FM290600 17004KT 5SM -SHRA SCT060 BKN120
     FM290900 09008KT 5SM SHRA BKN050 PROB30 2910/2912 2SM +TSRA
      BKN040CB=

USA.gov is the U.S. government's official web portal to all federal, state and local government web resources and services.